sensor_id;sensor_type;location;lat;lon;timestamp;temperature;humidity
19878;DHT22;10101;52.204;9.910;2023-04-01T00:01:04;9.40;99.90
19878;DHT22;10101;52.204;9.910;2023-04-01T00:03:32;9.30;99.90
19878;DHT22;10101;52.204;9.910;2023-04-01T00:05:59;9.40;99.90
19878;DHT22;10101;52.204;9.910;2023-04-01T00:08:28;9.40;99.90
19878;DHT22;10101;52.204;9.910;2023-04-01T00:10:55;9.40;99.90
19878;DHT22;10101;52.204;9.910;2023-04-01T00:13:22;9.40;99.90
19878;DHT22;10101;52.204;9.910;2023-04-01T00:15:51;9.40;99.90
19878;DHT22;10101;52.204;9.910;2023-04-01T00:18:18;9.40;99.90
19878;DHT22;10101;52.204;9.910;2023-04-01T00:20:45;9.40;99.90
19878;DHT22;10101;52.204;9.910;2023-04-01T00:23:12;9.40;99.90
19878;DHT22;10101;52.204;9.910;2023-04-01T00:25:41;9.40;99.90
19878;DHT22;10101;52.204;9.910;2023-04-01T00:28:08;9.50;99.90
19878;DHT22;10101;52.204;9.910;2023-04-01T00:30:35;9.50;99.90
19878;DHT22;10101;52.204;9.910;2023-04-01T00:33:02;9.60;99.90
19878;DHT22;10101;52.204;9.910;2023-04-01T00:35:29;9.60;99.90
19878;DHT22;10101;52.204;9.910;2023-04-01T00:37:57;9.60;99.90
19878;DHT22;10101;52.204;9.910;2023-04-01T00:40:27;9.50;99.90
19878;DHT22;10101;52.204;9.910;2023-04-01T00:42:57;9.60;99.90
19878;DHT22;10101;52.204;9.910;2023-04-01T00:45:28;9.50;99.90
19878;DHT22;10101;52.204;9.910;2023-04-01T00:47:56;9.60;99.90
19878;DHT22;10101;52.204;9.910;2023-04-01T00:50:25;9.60;99.90
19878;DHT22;10101;52.204;9.910;2023-04-01T00:52:52;9.60;99.90
19878;DHT22;10101;52.204;9.910;2023-04-01T00:55:20;9.60;99.90
19878;DHT22;10101;52.204;9.910;2023-04-01T00:57:48;9.50;99.90
19878;DHT22;10101;52.204;9.910;2023-04-01T01:00:18;9.60;99.90
19878;DHT22;10101;52.204;9.910;2023-04-01T01:02:45;9.70;99.90
19878;DHT22;10101;52.204;9.910;2023-04-01T01:05:14;9.60;99.90
19878;DHT22;10101;52.204;9.910;2023-04-01T01:07:45;9.70;99.90
19878;DHT22;10101;52.204;9.910;2023-04-01T01:10:17;9.70;99.90
19878;DHT22;10101;52.204;9.910;2023-04-01T01:12:47;9.70;99.90
19878;DHT22;10101;52.204;9.910;2023-04-01T01:15:21;9.60;99.90
19878;DHT22;10101;52.204;9.910;2023-04-01T01:17:56;9.60;99.90
19878;DHT22;10101;52.204;9.910;2023-04-01T01:20:42;9.60;99.90
19878;DHT22;10101;52.204;9.910;2023-04-01T01:26:50;9.50;99.90
19878;DHT22;10101;52.204;9.910;2023-04-01T01:29:42;9.50;99.90
19878;DHT22;10101;52.204;9.910;2023-04-01T01:32:20;9.40;99.90
19878;DHT22;10101;52.204;9.910;2023-04-01T01:34:55;9.40;99.90
19878;DHT22;10101;52.204;9.910;2023-04-01T01:37:25;9.30;99.90
19878;DHT22;10101;52.204;9.910;2023-04-01T01:39:56;9.30;99.90
19878;DHT22;10101;52.204;9.910;2023-04-01T01:42:25;9.20;99.90
19878;DHT22;10101;52.204;9.910;2023-04-01T01:44:55;9.20;99.90
19878;DHT22;10101;52.204;9.910;2023-04-01T01:47:24;9.10;99.90
19878;DHT22;10101;52.204;9.910;2023-04-01T01:49:53;9.10;99.90
19878;DHT22;10101;52.204;9.910;2023-04-01T01:52:21;9.10;99.90
19878;DHT22;10101;52.204;9.910;2023-04-01T01:54:50;9.00;99.90
19878;DHT22;10101;52.204;9.910;2023-04-01T01:57:22;9.00;99.90
19878;DHT22;10101;52.204;9.910;2023-04-01T01:59:50;9.00;99.90
19878;DHT22;10101;52.204;9.910;2023-04-01T02:02:19;8.90;99.90
19878;DHT22;10101;52.204;9.910;2023-04-01T02:04:47;8.90;99.90
19878;DHT22;10101;52.204;9.910;2023-04-01T02:07:19;8.90;99.90
19878;DHT22;10101;52.204;9.910;2023-04-01T02:09:47;8.90;99.90
19878;DHT22;10101;52.204;9.910;2023-04-01T02:12:17;8.90;99.90
19878;DHT22;10101;52.204;9.910;2023-04-01T02:14:49;8.90;99.90
19878;DHT22;10101;52.204;9.910;2023-04-01T02:17:18;8.90;99.90
19878;DHT22;10101;52.204;9.910;2023-04-01T02:19:49;8.90;99.90
19878;DHT22;10101;52.204;9.910;2023-04-01T02:22:19;8.80;99.90
19878;DHT22;10101;52.204;9.910;2023-04-01T02:24:47;8.80;99.90
19878;DHT22;10101;52.204;9.910;2023-04-01T02:27:17;8.80;99.90
19878;DHT22;10101;52.204;9.910;2023-04-01T02:29:44;8.80;99.90
19878;DHT22;10101;52.204;9.910;2023-04-01T02:32:11;8.80;99.90
19878;DHT22;10101;52.204;9.910;2023-04-01T02:34:39;8.90;99.90
19878;DHT22;10101;52.204;9.910;2023-04-01T02:37:06;8.90;99.90
19878;DHT22;10101;52.204;9.910;2023-04-01T02:39:32;8.80;99.90
19878;DHT22;10101;52.204;9.910;2023-04-01T02:41:59;8.80;99.90
19878;DHT22;10101;52.204;9.910;2023-04-01T02:44:28;8.80;99.90
19878;DHT22;10101;52.204;9.910;2023-04-01T02:46:54;8.80;99.90
19878;DHT22;10101;52.204;9.910;2023-04-01T02:49:21;8.80;99.90
19878;DHT22;10101;52.204;9.910;2023-04-01T02:51:48;8.90;99.90
19878;DHT22;10101;52.204;9.910;2023-04-01T02:54:15;8.80;99.90
19878;DHT22;10101;52.204;9.910;2023-04-01T02:56:41;8.80;99.90
19878;DHT22;10101;52.204;9.910;2023-04-01T02:59:08;8.80;99.90
19878;DHT22;10101;52.204;9.910;2023-04-01T03:01:37;8.80;99.90
19878;DHT22;10101;52.204;9.910;2023-04-01T03:04:04;8.80;99.90
19878;DHT22;10101;52.204;9.910;2023-04-01T03:06:31;8.80;99.90
19878;DHT22;10101;52.204;9.910;2023-04-01T03:08:57;8.80;99.90
19878;DHT22;10101;52.204;9.910;2023-04-01T03:11:24;8.80;99.90
19878;DHT22;10101;52.204;9.910;2023-04-01T03:13:51;8.80;99.90
19878;DHT22;10101;52.204;9.910;2023-04-01T03:16:18;8.80;99.90
19878;DHT22;10101;52.204;9.910;2023-04-01T03:18:46;8.80;99.90
19878;DHT22;10101;52.204;9.910;2023-04-01T03:21:17;8.80;99.90
19878;DHT22;10101;52.204;9.910;2023-04-01T03:23:44;8.70;99.90
19878;DHT22;10101;52.204;9.910;2023-04-01T03:26:11;8.70;99.90
19878;DHT22;10101;52.204;9.910;2023-04-01T03:28:37;8.70;99.90
19878;DHT22;10101;52.204;9.910;2023-04-01T03:31:04;8.60;99.90
19878;DHT22;10101;52.204;9.910;2023-04-01T03:33:32;8.70;99.90
19878;DHT22;10101;52.204;9.910;2023-04-01T03:36:00;8.60;99.90
19878;DHT22;10101;52.204;9.910;2023-04-01T03:38:26;8.70;99.90
19878;DHT22;10101;52.204;9.910;2023-04-01T03:40:53;8.70;99.90
19878;DHT22;10101;52.204;9.910;2023-04-01T03:43:20;8.70;99.90
19878;DHT22;10101;52.204;9.910;2023-04-01T03:45:49;8.70;99.90
19878;DHT22;10101;52.204;9.910;2023-04-01T03:48:17;8.70;99.90
19878;DHT22;10101;52.204;9.910;2023-04-01T03:50:45;8.70;99.90
19878;DHT22;10101;52.204;9.910;2023-04-01T03:53:13;8.70;99.90
19878;DHT22;10101;52.204;9.910;2023-04-01T03:55:40;8.70;99.90
19878;DHT22;10101;52.204;9.910;2023-04-01T03:58:07;8.70;99.90
19878;DHT22;10101;52.204;9.910;2023-04-01T04:00:34;8.70;99.90
19878;DHT22;10101;52.204;9.910;2023-04-01T04:03:01;8.70;99.90
19878;DHT22;10101;52.204;9.910;2023-04-01T04:05:28;8.70;99.90
19878;DHT22;10101;52.204;9.910;2023-04-01T04:07:55;8.70;99.90
19878;DHT22;10101;52.204;9.910;2023-04-01T04:10:23;8.70;99.90
19878;DHT22;10101;52.204;9.910;2023-04-01T04:12:51;8.70;99.90
19878;DHT22;10101;52.204;9.910;2023-04-01T04:15:18;8.70;99.90
19878;DHT22;10101;52.204;9.910;2023-04-01T04:17:45;8.70;99.90
19878;DHT22;10101;52.204;9.910;2023-04-01T04:20:12;8.70;99.90
19878;DHT22;10101;52.204;9.910;2023-04-01T04:22:38;8.70;99.90
19878;DHT22;10101;52.204;9.910;2023-04-01T04:25:06;8.80;99.90
19878;DHT22;10101;52.204;9.910;2023-04-01T04:27:34;8.80;99.90
19878;DHT22;10101;52.204;9.910;2023-04-01T04:30:01;8.80;99.90
19878;DHT22;10101;52.204;9.910;2023-04-01T04:32:28;8.80;99.90
19878;DHT22;10101;52.204;9.910;2023-04-01T04:34:56;8.80;99.90
19878;DHT22;10101;52.204;9.910;2023-04-01T04:37:23;8.80;99.90
19878;DHT22;10101;52.204;9.910;2023-04-01T04:39:51;8.80;99.90
19878;DHT22;10101;52.204;9.910;2023-04-01T04:42:18;8.90;99.90
19878;DHT22;10101;52.204;9.910;2023-04-01T04:44:46;8.90;99.90
19878;DHT22;10101;52.204;9.910;2023-04-01T04:47:12;8.90;99.90
19878;DHT22;10101;52.204;9.910;2023-04-01T04:49:39;8.90;99.90
19878;DHT22;10101;52.204;9.910;2023-04-01T04:52:06;8.90;99.90
19878;DHT22;10101;52.204;9.910;2023-04-01T04:54:33;8.90;99.90
19878;DHT22;10101;52.204;9.910;2023-04-01T04:56:59;8.90;99.90
19878;DHT22;10101;52.204;9.910;2023-04-01T04:59:26;8.90;99.90
19878;DHT22;10101;52.204;9.910;2023-04-01T05:01:54;8.90;99.90
19878;DHT22;10101;52.204;9.910;2023-04-01T05:04:21;8.90;99.90
19878;DHT22;10101;52.204;9.910;2023-04-01T05:06:48;8.90;99.90
19878;DHT22;10101;52.204;9.910;2023-04-01T05:09:15;8.90;99.90
19878;DHT22;10101;52.204;9.910;2023-04-01T05:11:41;8.80;99.90
19878;DHT22;10101;52.204;9.910;2023-04-01T05:14:12;8.80;99.90
19878;DHT22;10101;52.204;9.910;2023-04-01T05:16:39;8.80;99.90
19878;DHT22;10101;52.204;9.910;2023-04-01T05:19:07;8.80;99.90
19878;DHT22;10101;52.204;9.910;2023-04-01T05:21:34;8.80;99.90
19878;DHT22;10101;52.204;9.910;2023-04-01T05:24:01;8.80;99.90
19878;DHT22;10101;52.204;9.910;2023-04-01T05:26:28;8.70;99.90
19878;DHT22;10101;52.204;9.910;2023-04-01T05:28:54;8.80;99.90
19878;DHT22;10101;52.204;9.910;2023-04-01T05:31:21;8.70;99.90
19878;DHT22;10101;52.204;9.910;2023-04-01T05:33:49;8.80;99.90
19878;DHT22;10101;52.204;9.910;2023-04-01T05:36:17;8.80;99.90
19878;DHT22;10101;52.204;9.910;2023-04-01T05:38:44;8.80;99.90
19878;DHT22;10101;52.204;9.910;2023-04-01T05:41:12;8.70;99.90
19878;DHT22;10101;52.204;9.910;2023-04-01T05:43:40;8.70;99.90
19878;DHT22;10101;52.204;9.910;2023-04-01T05:46:07;8.70;99.90
19878;DHT22;10101;52.204;9.910;2023-04-01T05:48:34;8.80;99.90
19878;DHT22;10101;52.204;9.910;2023-04-01T05:51:01;8.80;99.90
19878;DHT22;10101;52.204;9.910;2023-04-01T05:53:29;8.90;99.90
19878;DHT22;10101;52.204;9.910;2023-04-01T05:55:56;8.90;99.90
19878;DHT22;10101;52.204;9.910;2023-04-01T05:58:23;9.00;99.90
19878;DHT22;10101;52.204;9.910;2023-04-01T06:00:49;9.00;99.90
19878;DHT22;10101;52.204;9.910;2023-04-01T06:03:16;9.00;99.90
19878;DHT22;10101;52.204;9.910;2023-04-01T06:05:44;9.10;99.90
19878;DHT22;10101;52.204;9.910;2023-04-01T06:08:13;9.20;99.90
19878;DHT22;10101;52.204;9.910;2023-04-01T06:10:53;9.20;99.90
19878;DHT22;10101;52.204;9.910;2023-04-01T06:13:30;9.30;99.90
19878;DHT22;10101;52.204;9.910;2023-04-01T06:16:07;9.30;99.90
19878;DHT22;10101;52.204;9.910;2023-04-01T06:18:45;9.30;99.90
19878;DHT22;10101;52.204;9.910;2023-04-01T06:21:39;9.40;99.90
19878;DHT22;10101;52.204;9.910;2023-04-01T06:24:21;9.40;99.90
19878;DHT22;10101;52.204;9.910;2023-04-01T06:26:57;9.50;99.90
19878;DHT22;10101;52.204;9.910;2023-04-01T06:32:34;9.60;99.90
19878;DHT22;10101;52.204;9.910;2023-04-01T06:35:31;9.60;99.90
19878;DHT22;10101;52.204;9.910;2023-04-01T06:38:18;9.70;99.90
19878;DHT22;10101;52.204;9.910;2023-04-01T06:43:53;9.70;99.90
19878;DHT22;10101;52.204;9.910;2023-04-01T06:46:30;9.70;99.90
19878;DHT22;10101;52.204;9.910;2023-04-01T06:49:07;9.70;99.90
19878;DHT22;10101;52.204;9.910;2023-04-01T06:51:43;9.70;99.90
19878;DHT22;10101;52.204;9.910;2023-04-01T06:54:16;9.70;99.90
19878;DHT22;10101;52.204;9.910;2023-04-01T06:56:46;9.70;99.90
19878;DHT22;10101;52.204;9.910;2023-04-01T06:59:18;9.70;99.90
19878;DHT22;10101;52.204;9.910;2023-04-01T07:01:49;9.70;99.90
19878;DHT22;10101;52.204;9.910;2023-04-01T07:04:20;9.70;99.90
19878;DHT22;10101;52.204;9.910;2023-04-01T07:06:51;9.80;99.90
19878;DHT22;10101;52.204;9.910;2023-04-01T07:09:22;9.80;99.90
19878;DHT22;10101;52.204;9.910;2023-04-01T07:11:50;9.80;99.90
19878;DHT22;10101;52.204;9.910;2023-04-01T07:14:25;9.90;99.90
19878;DHT22;10101;52.204;9.910;2023-04-01T07:16:59;9.90;99.90
19878;DHT22;10101;52.204;9.910;2023-04-01T07:19:31;10.00;99.90
19878;DHT22;10101;52.204;9.910;2023-04-01T07:22:04;10.10;99.90
19878;DHT22;10101;52.204;9.910;2023-04-01T07:24:34;10.20;99.90
19878;DHT22;10101;52.204;9.910;2023-04-01T07:27:01;10.30;99.90
19878;DHT22;10101;52.204;9.910;2023-04-01T07:29:29;10.40;99.90
19878;DHT22;10101;52.204;9.910;2023-04-01T07:32:17;10.30;99.90
19878;DHT22;10101;52.204;9.910;2023-04-01T07:35:02;10.40;99.90
19878;DHT22;10101;52.204;9.910;2023-04-01T07:37:39;10.60;99.90
19878;DHT22;10101;52.204;9.910;2023-04-01T07:40:20;10.60;99.90
19878;DHT22;10101;52.204;9.910;2023-04-01T07:43:02;10.60;99.90
19878;DHT22;10101;52.204;9.910;2023-04-01T07:45:37;10.70;99.90
19878;DHT22;10101;52.204;9.910;2023-04-01T07:48:15;10.70;99.90
19878;DHT22;10101;52.204;9.910;2023-04-01T07:50:52;10.80;99.90
19878;DHT22;10101;52.204;9.910;2023-04-01T07:53:26;10.80;99.90
19878;DHT22;10101;52.204;9.910;2023-04-01T07:56:02;10.60;99.90
19878;DHT22;10101;52.204;9.910;2023-04-01T07:58:36;10.70;99.90
19878;DHT22;10101;52.204;9.910;2023-04-01T08:01:11;10.60;99.90
19878;DHT22;10101;52.204;9.910;2023-04-01T08:03:52;10.70;99.90
19878;DHT22;10101;52.204;9.910;2023-04-01T08:06:24;10.80;99.90
19878;DHT22;10101;52.204;9.910;2023-04-01T08:09:02;10.80;99.90
19878;DHT22;10101;52.204;9.910;2023-04-01T08:11:45;11.00;99.90
19878;DHT22;10101;52.204;9.910;2023-04-01T08:14:19;11.00;99.90
19878;DHT22;10101;52.204;9.910;2023-04-01T08:16:57;11.00;99.90
19878;DHT22;10101;52.204;9.910;2023-04-01T08:19:31;11.20;99.90
19878;DHT22;10101;52.204;9.910;2023-04-01T08:22:05;11.20;99.90
19878;DHT22;10101;52.204;9.910;2023-04-01T08:24:39;11.30;99.90
19878;DHT22;10101;52.204;9.910;2023-04-01T08:27:12;11.40;99.90
19878;DHT22;10101;52.204;9.910;2023-04-01T08:29:48;11.40;99.90
19878;DHT22;10101;52.204;9.910;2023-04-01T08:32:20;11.50;99.90
19878;DHT22;10101;52.204;9.910;2023-04-01T08:34:53;11.50;99.90
19878;DHT22;10101;52.204;9.910;2023-04-01T08:37:25;11.40;99.90
19878;DHT22;10101;52.204;9.910;2023-04-01T08:39:58;11.40;99.90
19878;DHT22;10101;52.204;9.910;2023-04-01T08:42:36;11.40;99.90
19878;DHT22;10101;52.204;9.910;2023-04-01T08:48:25;11.40;99.90
19878;DHT22;10101;52.204;9.910;2023-04-01T08:51:16;11.40;99.90
19878;DHT22;10101;52.204;9.910;2023-04-01T08:54:03;11.50;99.90
19878;DHT22;10101;52.204;9.910;2023-04-01T08:56:36;11.60;99.90
19878;DHT22;10101;52.204;9.910;2023-04-01T08:59:20;11.70;99.90
19878;DHT22;10101;52.204;9.910;2023-04-01T09:02:04;11.80;99.90
19878;DHT22;10101;52.204;9.910;2023-04-01T09:05:08;11.80;99.90
19878;DHT22;10101;52.204;9.910;2023-04-01T09:07:45;11.90;99.90
19878;DHT22;10101;52.204;9.910;2023-04-01T09:13:29;12.30;99.90
19878;DHT22;10101;52.204;9.910;2023-04-01T09:16:12;12.30;99.90
19878;DHT22;10101;52.204;9.910;2023-04-01T09:18:48;12.40;99.90
19878;DHT22;10101;52.204;9.910;2023-04-01T09:27:33;12.50;99.90
19878;DHT22;10101;52.204;9.910;2023-04-01T09:30:45;12.40;99.90
19878;DHT22;10101;52.204;9.910;2023-04-01T09:36:25;12.30;99.90
19878;DHT22;10101;52.204;9.910;2023-04-01T09:38:57;12.40;99.90
19878;DHT22;10101;52.204;9.910;2023-04-01T09:41:30;12.30;99.90
19878;DHT22;10101;52.204;9.910;2023-04-01T09:44:02;12.30;1.00
19878;DHT22;10101;52.204;9.910;2023-04-01T09:46:46;12.30;1.00
19878;DHT22;10101;52.204;9.910;2023-04-01T09:49:42;12.40;99.90
19878;DHT22;10101;52.204;9.910;2023-04-01T09:52:20;12.30;1.00
19878;DHT22;10101;52.204;9.910;2023-04-01T09:55:18;12.40;1.00
19878;DHT22;10101;52.204;9.910;2023-04-01T09:58:07;12.50;1.00
19878;DHT22;10101;52.204;9.910;2023-04-01T10:13:42;12.60;1.00
19878;DHT22;10101;52.204;9.910;2023-04-01T10:16:32;12.40;99.90
19878;DHT22;10101;52.204;9.910;2023-04-01T10:19:20;12.50;99.90
19878;DHT22;10101;52.204;9.910;2023-04-01T10:25:05;12.60;99.90
19878;DHT22;10101;52.204;9.910;2023-04-01T10:31:14;12.70;99.90
19878;DHT22;10101;52.204;9.910;2023-04-01T10:34:05;12.70;99.90
19878;DHT22;10101;52.204;9.910;2023-04-01T10:36:52;13.10;99.90
19878;DHT22;10101;52.204;9.910;2023-04-01T10:46:30;12.70;1.00
19878;DHT22;10101;52.204;9.910;2023-04-01T10:49:16;12.60;1.00
19878;DHT22;10101;52.204;9.910;2023-04-01T10:52:12;12.90;84.70
19878;DHT22;10101;52.204;9.910;2023-04-01T10:55:06;12.90;1.00
19878;DHT22;10101;52.204;9.910;2023-04-01T11:04:04;13.30;1.00
19878;DHT22;10101;52.204;9.910;2023-04-01T11:13:27;13.00;1.00
19878;DHT22;10101;52.204;9.910;2023-04-01T11:16:26;13.00;1.00
19878;DHT22;10101;52.204;9.910;2023-04-01T11:19:12;13.60;1.00
19878;DHT22;10101;52.204;9.910;2023-04-01T11:24:51;13.70;1.00
19878;DHT22;10101;52.204;9.910;2023-04-01T11:27:37;13.70;99.90
19878;DHT22;10101;52.204;9.910;2023-04-01T11:30:16;13.70;1.00
19878;DHT22;10101;52.204;9.910;2023-04-01T11:32:53;13.50;99.90
19878;DHT22;10101;52.204;9.910;2023-04-01T11:35:37;13.40;1.00
19878;DHT22;10101;52.204;9.910;2023-04-01T11:38:19;13.50;1.00
19878;DHT22;10101;52.204;9.910;2023-04-01T11:40:54;13.30;99.90
19878;DHT22;10101;52.204;9.910;2023-04-01T11:43:31;13.50;99.90
19878;DHT22;10101;52.204;9.910;2023-04-01T11:46:08;13.40;54.20
19878;DHT22;10101;52.204;9.910;2023-04-01T11:48:48;13.50;99.90
19878;DHT22;10101;52.204;9.910;2023-04-01T11:51:34;13.50;99.90
19878;DHT22;10101;52.204;9.910;2023-04-01T11:54:10;13.20;99.90
19878;DHT22;10101;52.204;9.910;2023-04-01T11:56:54;13.00;99.90
19878;DHT22;10101;52.204;9.910;2023-04-01T12:02:35;13.20;99.90
19878;DHT22;10101;52.204;9.910;2023-04-01T12:05:22;13.50;1.00
19878;DHT22;10101;52.204;9.910;2023-04-01T12:08:03;13.50;1.00
19878;DHT22;10101;52.204;9.910;2023-04-01T12:10:39;13.10;1.00
19878;DHT22;10101;52.204;9.910;2023-04-01T12:13:16;13.30;1.00
19878;DHT22;10101;52.204;9.910;2023-04-01T12:16:04;13.30;99.90
19878;DHT22;10101;52.204;9.910;2023-04-01T12:18:38;13.40;99.90
19878;DHT22;10101;52.204;9.910;2023-04-01T12:21:17;13.30;99.90
19878;DHT22;10101;52.204;9.910;2023-04-01T12:26:58;13.70;1.00
19878;DHT22;10101;52.204;9.910;2023-04-01T12:29:47;13.70;25.10
19878;DHT22;10101;52.204;9.910;2023-04-01T12:32:23;13.40;99.90
19878;DHT22;10101;52.204;9.910;2023-04-01T12:35:15;13.60;1.00
19878;DHT22;10101;52.204;9.910;2023-04-01T12:37:51;13.50;99.90
19878;DHT22;10101;52.204;9.910;2023-04-01T12:40:33;13.60;68.00
19878;DHT22;10101;52.204;9.910;2023-04-01T12:43:20;13.60;1.00
19878;DHT22;10101;52.204;9.910;2023-04-01T12:46:00;13.60;1.00
19878;DHT22;10101;52.204;9.910;2023-04-01T12:48:54;13.80;99.90
19878;DHT22;10101;52.204;9.910;2023-04-01T12:51:36;13.90;1.00
19878;DHT22;10101;52.204;9.910;2023-04-01T12:54:24;13.90;1.00
19878;DHT22;10101;52.204;9.910;2023-04-01T12:57:07;13.90;1.00
19878;DHT22;10101;52.204;9.910;2023-04-01T12:59:56;14.00;99.90
19878;DHT22;10101;52.204;9.910;2023-04-01T13:02:39;14.50;1.00
19878;DHT22;10101;52.204;9.910;2023-04-01T13:05:23;14.70;1.00
19878;DHT22;10101;52.204;9.910;2023-04-01T13:08:03;14.60;1.00
19878;DHT22;10101;52.204;9.910;2023-04-01T13:11:02;14.70;1.00
19878;DHT22;10101;52.204;9.910;2023-04-01T13:16:29;15.30;1.00
19878;DHT22;10101;52.204;9.910;2023-04-01T13:19:02;15.20;1.00
19878;DHT22;10101;52.204;9.910;2023-04-01T13:21:40;15.10;99.90
19878;DHT22;10101;52.204;9.910;2023-04-01T13:24:18;15.00;1.00
19878;DHT22;10101;52.204;9.910;2023-04-01T13:26:56;14.90;1.00
19878;DHT22;10101;52.204;9.910;2023-04-01T13:29:30;15.10;1.00
19878;DHT22;10101;52.204;9.910;2023-04-01T13:32:13;15.00;1.00
19878;DHT22;10101;52.204;9.910;2023-04-01T13:34:52;14.80;1.00
19878;DHT22;10101;52.204;9.910;2023-04-01T13:37:34;14.60;1.00
19878;DHT22;10101;52.204;9.910;2023-04-01T13:40:15;14.10;99.90
19878;DHT22;10101;52.204;9.910;2023-04-01T13:42:54;13.80;99.90
19878;DHT22;10101;52.204;9.910;2023-04-01T13:45:32;13.70;1.00
19878;DHT22;10101;52.204;9.910;2023-04-01T13:48:29;13.60;1.00
19878;DHT22;10101;52.204;9.910;2023-04-01T13:51:13;13.30;1.00
19878;DHT22;10101;52.204;9.910;2023-04-01T13:53:55;13.00;99.90
19878;DHT22;10101;52.204;9.910;2023-04-01T13:56:42;12.80;1.00
19878;DHT22;10101;52.204;9.910;2023-04-01T13:59:38;12.70;1.00
19878;DHT22;10101;52.204;9.910;2023-04-01T14:02:45;12.50;1.00
19878;DHT22;10101;52.204;9.910;2023-04-01T14:05:32;12.30;99.90
19878;DHT22;10101;52.204;9.910;2023-04-01T14:08:14;12.20;1.00
19878;DHT22;10101;52.204;9.910;2023-04-01T14:10:50;12.10;99.90
19878;DHT22;10101;52.204;9.910;2023-04-01T14:13:25;12.00;1.00
19878;DHT22;10101;52.204;9.910;2023-04-01T14:16:04;12.00;1.00
19878;DHT22;10101;52.204;9.910;2023-04-01T14:18:46;12.00;99.90
19878;DHT22;10101;52.204;9.910;2023-04-01T14:21:29;11.80;1.00
19878;DHT22;10101;52.204;9.910;2023-04-01T14:24:23;11.80;99.60
19878;DHT22;10101;52.204;9.910;2023-04-01T14:27:36;11.70;99.90
19878;DHT22;10101;52.204;9.910;2023-04-01T14:30:31;11.60;99.90
19878;DHT22;10101;52.204;9.910;2023-04-01T14:33:10;11.50;99.90
19878;DHT22;10101;52.204;9.910;2023-04-01T14:35:49;11.30;99.90
19878;DHT22;10101;52.204;9.910;2023-04-01T14:38:39;11.30;99.90
19878;DHT22;10101;52.204;9.910;2023-04-01T14:41:26;11.50;99.90
19878;DHT22;10101;52.204;9.910;2023-04-01T14:49:53;11.50;99.90
19878;DHT22;10101;52.204;9.910;2023-04-01T14:52:27;11.50;99.90
19878;DHT22;10101;52.204;9.910;2023-04-01T14:54:54;11.30;99.90
19878;DHT22;10101;52.204;9.910;2023-04-01T14:57:24;11.10;99.90
19878;DHT22;10101;52.204;9.910;2023-04-01T14:59:54;10.90;99.90
19878;DHT22;10101;52.204;9.910;2023-04-01T15:02:45;10.80;99.90
19878;DHT22;10101;52.204;9.910;2023-04-01T15:05:19;10.60;99.90
19878;DHT22;10101;52.204;9.910;2023-04-01T15:08:08;10.30;99.90
19878;DHT22;10101;52.204;9.910;2023-04-01T15:11:01;10.10;99.90
19878;DHT22;10101;52.204;9.910;2023-04-01T15:13:53;10.00;99.90
19878;DHT22;10101;52.204;9.910;2023-04-01T15:16:27;10.00;99.90
19878;DHT22;10101;52.204;9.910;2023-04-01T15:19:08;9.90;99.90
19878;DHT22;10101;52.204;9.910;2023-04-01T15:21:55;9.90;99.90
19878;DHT22;10101;52.204;9.910;2023-04-01T15:24:39;9.80;99.90
19878;DHT22;10101;52.204;9.910;2023-04-01T15:27:31;9.80;99.90
19878;DHT22;10101;52.204;9.910;2023-04-01T15:33:11;9.60;99.90
19878;DHT22;10101;52.204;9.910;2023-04-01T15:35:47;9.60;99.90
19878;DHT22;10101;52.204;9.910;2023-04-01T15:38:28;9.50;99.90
19878;DHT22;10101;52.204;9.910;2023-04-01T15:41:03;9.50;99.90
19878;DHT22;10101;52.204;9.910;2023-04-01T15:43:42;9.50;99.90
19878;DHT22;10101;52.204;9.910;2023-04-01T15:46:26;9.40;99.90
19878;DHT22;10101;52.204;9.910;2023-04-01T15:49:25;9.20;99.90
19878;DHT22;10101;52.204;9.910;2023-04-01T15:52:07;9.20;99.90
19878;DHT22;10101;52.204;9.910;2023-04-01T15:55:00;9.10;99.90
19878;DHT22;10101;52.204;9.910;2023-04-01T15:57:37;9.00;99.90
19878;DHT22;10101;52.204;9.910;2023-04-01T16:00:17;9.00;99.90
19878;DHT22;10101;52.204;9.910;2023-04-01T16:02:48;8.90;99.90
19878;DHT22;10101;52.204;9.910;2023-04-01T16:05:27;8.90;99.90
19878;DHT22;10101;52.204;9.910;2023-04-01T16:08:11;8.90;99.90
19878;DHT22;10101;52.204;9.910;2023-04-01T16:10:58;8.80;99.90
19878;DHT22;10101;52.204;9.910;2023-04-01T16:13:46;8.80;99.90
19878;DHT22;10101;52.204;9.910;2023-04-01T16:16:23;8.80;99.90
19878;DHT22;10101;52.204;9.910;2023-04-01T16:19:03;8.80;99.90
19878;DHT22;10101;52.204;9.910;2023-04-01T16:21:37;8.70;99.90
19878;DHT22;10101;52.204;9.910;2023-04-01T16:24:13;8.60;99.90
19878;DHT22;10101;52.204;9.910;2023-04-01T16:26:48;8.60;99.90
19878;DHT22;10101;52.204;9.910;2023-04-01T16:29:27;8.60;99.90
19878;DHT22;10101;52.204;9.910;2023-04-01T16:32:02;8.50;99.90
19878;DHT22;10101;52.204;9.910;2023-04-01T16:34:35;8.50;99.90
19878;DHT22;10101;52.204;9.910;2023-04-01T16:37:08;8.40;99.90
19878;DHT22;10101;52.204;9.910;2023-04-01T16:39:44;8.40;99.90
19878;DHT22;10101;52.204;9.910;2023-04-01T16:42:22;8.30;99.90
19878;DHT22;10101;52.204;9.910;2023-04-01T16:44:55;8.40;99.90
19878;DHT22;10101;52.204;9.910;2023-04-01T16:47:27;8.30;99.90
19878;DHT22;10101;52.204;9.910;2023-04-01T16:49:59;8.30;99.90
19878;DHT22;10101;52.204;9.910;2023-04-01T16:52:43;8.30;99.90
19878;DHT22;10101;52.204;9.910;2023-04-01T16:55:17;8.20;99.90
19878;DHT22;10101;52.204;9.910;2023-04-01T16:57:48;8.10;99.90
19878;DHT22;10101;52.204;9.910;2023-04-01T17:00:25;8.00;99.90
19878;DHT22;10101;52.204;9.910;2023-04-01T17:02:58;8.00;99.90
19878;DHT22;10101;52.204;9.910;2023-04-01T17:05:43;7.90;99.90
19878;DHT22;10101;52.204;9.910;2023-04-01T17:08:17;7.90;99.90
19878;DHT22;10101;52.204;9.910;2023-04-01T17:10:51;7.90;99.90
19878;DHT22;10101;52.204;9.910;2023-04-01T17:13:29;7.90;99.90
19878;DHT22;10101;52.204;9.910;2023-04-01T17:16:12;7.80;99.90
19878;DHT22;10101;52.204;9.910;2023-04-01T17:18:48;7.90;99.90
19878;DHT22;10101;52.204;9.910;2023-04-01T17:21:19;7.80;99.90
19878;DHT22;10101;52.204;9.910;2023-04-01T17:23:51;7.80;99.90
19878;DHT22;10101;52.204;9.910;2023-04-01T17:26:28;7.70;99.90
19878;DHT22;10101;52.204;9.910;2023-04-01T17:29:00;7.70;99.90
19878;DHT22;10101;52.204;9.910;2023-04-01T17:31:44;7.60;99.90
19878;DHT22;10101;52.204;9.910;2023-04-01T17:34:27;7.50;99.90
19878;DHT22;10101;52.204;9.910;2023-04-01T17:37:06;7.50;99.90
19878;DHT22;10101;52.204;9.910;2023-04-01T17:39:53;7.40;99.90
19878;DHT22;10101;52.204;9.910;2023-04-01T17:42:38;7.30;99.90
19878;DHT22;10101;52.204;9.910;2023-04-01T17:45:10;7.30;99.90
19878;DHT22;10101;52.204;9.910;2023-04-01T17:48:03;7.20;99.90
19878;DHT22;10101;52.204;9.910;2023-04-01T17:50:48;7.20;99.90
19878;DHT22;10101;52.204;9.910;2023-04-01T17:53:28;7.20;99.90
19878;DHT22;10101;52.204;9.910;2023-04-01T17:56:08;7.10;99.90
19878;DHT22;10101;52.204;9.910;2023-04-01T17:58:44;7.10;99.90
19878;DHT22;10101;52.204;9.910;2023-04-01T18:01:24;7.10;99.90